Time;durP1;ratioP1;P1;durP2;ratioP2;P2;SDS_P1;SDS_P2;PMS_P1;PMS_P2;Temp;Humidity;BMP_temperature;BMP_pressure;BME280_temperature;BME280_humidity;BME280_pressure;Samples;Min_cycle;Max_cycle;Signal;HPM_P1;HPM_P2
2022/12/06 00:01:31;;;;;;;71.20;29.42;;;;;;;4.29;100.00;98950.44;4238589;33;20042;-71
2022/12/06 00:04:00;;;;;;;68.40;29.48;;;;;;;4.44;100.00;98979.53;4241012;33;20096;-71
2022/12/06 00:06:29;;;;;;;75.97;31.55;;;;;;;4.19;100.00;98945.56;4238566;33;20042;-70
2022/12/06 00:08:57;;;;;;;79.35;30.77;;;;;;;4.09;100.00;98977.19;4238397;33;20484;-71
2022/12/06 00:11:27;;;;;;;68.60;28.60;;;;;;;3.91;100.00;98944.00;4237667;33;20042;-70
2022/12/06 00:13:59;;;;;;;68.15;29.98;;;;;;;4.34;100.00;98959.47;4236866;33;20072;-71
2022/12/06 00:16:26;;;;;;;71.32;29.92;;;;;;;4.49;100.00;98972.53;4234626;33;20026;-70
2022/12/06 00:18:53;;;;;;;65.97;27.40;;;;;;;4.45;100.00;98967.81;4234355;33;20947;-71
2022/12/06 00:21:23;;;;;;;74.90;31.48;;;;;;;4.43;100.00;98961.88;4236572;33;20061;-70
2022/12/06 00:23:53;;;;;;;58.72;26.58;;;;;;;4.79;100.00;98955.97;4233139;33;20042;-71
2022/12/06 00:26:20;;;;;;;70.45;30.75;;;;;;;4.99;100.00;98950.50;4235471;33;20476;-70
2022/12/06 00:28:47;;;;;;;59.88;25.85;;;;;;;4.75;100.00;98949.41;4237243;33;20046;-71
2022/12/06 00:31:16;;;;;;;58.28;27.52;;;;;;;4.21;100.00;98959.50;4237920;33;20058;-71
2022/12/06 00:33:43;;;;;;;57.10;25.37;;;;;;;4.33;100.00;98957.81;4234652;33;20523;-71
2022/12/06 00:36:14;;;;;;;62.60;26.33;;;;;;;3.88;100.00;98915.12;4236639;33;20042;-71
2022/12/06 00:38:41;;;;;;;;;;;;;;;4.42;100.00;98954.91;4235115;33;20037;-71
2022/12/06 00:41:10;;;;;;;61.37;26.33;;;;;;;4.75;100.00;98948.59;4224596;33;19960;-71
2022/12/06 00:43:38;;;;;;;55.33;26.17;;;;;;;4.33;100.00;98909.03;4209719;34;20065;-70
2022/12/06 00:46:06;;;;;;;67.12;28.67;;;;;;;4.43;100.00;98946.69;4210388;34;20040;-70
2022/12/06 00:48:34;;;;;;;59.67;25.45;;;;;;;4.87;100.00;98944.25;4210171;34;20056;-70
2022/12/06 00:51:00;;;;;;;65.97;28.58;;;;;;;4.89;100.00;98950.16;4221955;34;20042;-70
2022/12/06 00:53:27;;;;;;;67.43;27.30;;;;;;;4.85;100.00;98948.94;4225527;34;20082;-70
2022/12/06 00:55:56;;;;;;;64.40;27.70;;;;;;;5.00;100.00;98940.66;4224831;34;20039;-72
2022/12/06 00:58:23;;;;;;;72.25;30.73;;;;;;;5.05;100.00;98930.97;4210100;34;20040;-71
2022/12/06 03:02:21;;;;;;;72.35;30.02;;;;;;;5.16;100.00;98840.56;4348197;28;20412;-71
2022/12/06 03:04:57;;;;;;;74.50;30.95;;;;;;;5.28;100.00;98841.47;4290162;33;20052;-71
2022/12/06 03:07:29;;;;;;;71.65;30.23;;;;;;;5.37;100.00;98844.69;4286000;33;20064;-72
2022/12/06 03:10:14;;;;;;;64.85;28.77;;;;;;;5.25;100.00;98841.94;4264611;33;20038;-72
2022/12/06 03:12:59;;;;;;;68.85;29.60;;;;;;;4.96;100.00;98846.88;4263381;33;20034;-70
2022/12/06 03:15:44;;;;;;;68.72;31.08;;;;;;;4.99;100.00;98848.28;4265427;33;20063;-71
2022/12/06 03:18:31;;;;;;;63.83;28.17;;;;;;;4.81;100.00;98841.06;4264777;33;20063;-71
2022/12/06 03:21:08;;;;;;;63.05;27.80;;;;;;;4.92;100.00;98811.00;4265826;33;20090;-71
2022/12/06 03:23:42;;;;;;;72.85;27.60;;;;;;;4.80;100.00;98796.72;4252170;33;20034;-71
2022/12/06 03:26:12;;;;;;;69.43;28.00;;;;;;;5.07;100.00;98835.50;4250228;33;20058;-71
2022/12/06 03:28:39;;;;;;;77.87;29.30;;;;;;;4.62;100.00;98800.97;4258396;33;20544;-70
2022/12/06 03:31:10;;;;;;;62.15;29.40;;;;;;;4.87;100.00;98829.53;4251320;33;20027;-70
2022/12/06 03:33:44;;;;;;;72.97;29.83;;;;;;;5.16;100.00;98822.69;4251022;33;20311;-70
2022/12/06 03:36:13;;;;;;;71.37;30.02;;;;;;;5.09;100.00;98817.41;4249876;33;20060;-71
2022/12/06 03:38:57;;;;;;;73.50;30.15;;;;;;;4.98;100.00;98798.63;4251376;33;20033;-71
2022/12/06 03:41:28;;;;;;;84.85;35.53;;;;;;;5.37;100.00;98808.09;4248661;33;20075;-70
2022/12/06 03:43:55;;;;;;;74.10;28.37;;;;;;;4.95;100.00;98810.56;4251506;33;20050;-71
2022/12/06 03:46:25;;;;;;;68.07;29.77;;;;;;;4.51;100.00;98801.66;4250878;33;20136;-71
2022/12/06 03:49:10;;;;;;;79.60;31.00;;;;;;;4.82;100.00;98781.31;4250673;33;20026;-70
2022/12/06 03:51:39;;;;;;;75.72;31.60;;;;;;;4.77;100.00;98786.50;4248568;33;20049;-71
2022/12/06 03:54:07;;;;;;;84.93;33.83;;;;;;;4.80;100.00;98802.06;4253447;33;20042;-70
2022/12/06 03:56:36;;;;;;;83.32;31.95;;;;;;;5.05;100.00;98794.88;4253939;33;20056;-70
2022/12/06 03:59:08;;;;;;;71.07;30.48;;;;;;;4.80;100.00;98759.37;4252165;33;20067;-70
2022/12/06 04:01:35;;;;;;;72.50;31.77;;;;;;;5.05;100.00;98789.53;4244725;33;20050;-70
2022/12/06 04:04:01;;;;;;;73.80;34.90;;;;;;;5.21;100.00;98787.34;4245349;33;20038;-71
2022/12/06 04:06:28;;;;;;;86.78;32.53;;;;;;;5.25;100.00;98788.53;4245692;33;20506;-70
2022/12/06 04:09:51;;;;;;;76.20;32.00;;;;;;;5.56;100.00;98779.56;4251672;33;20050;-69
2022/12/06 04:11:44;;;;;;;73.03;30.77;;;;;;;5.25;100.00;98756.50;4250832;33;20045;-70
2022/12/06 04:14:10;;;;;;;73.15;31.62;;;;;;;5.36;100.00;98779.78;4267003;33;20049;-71
2022/12/06 04:19:22;;;;;;;69.93;29.87;;;;;;;5.26;100.00;98747.44;4270371;33;20124;-70
2022/12/06 04:24:33;;;;;;;74.95;30.95;;;;;;;5.55;100.00;98756.59;4266125;33;20041;-69
2022/12/06 04:28:40;;;;;;;72.07;31.95;;;;;;;5.55;100.00;98761.09;4267073;33;20072;-71
2022/12/06 04:40:53;;;;;;;72.05;30.70;;;;;;;5.38;100.00;98751.00;4263377;33;20355;-70
2022/12/06 04:43:53;;;;;;;75.85;29.80;;;;;;;4.95;100.00;98719.03;4265684;33;20050;-71
2022/12/06 04:46:14;;;;;;;;;;;;;;;4.66;100.00;98684.84;4264044;33;20454;-71
2022/12/06 04:48:41;;;;;;;74.07;30.80;;;;;;;5.48;100.00;98755.03;4267595;33;19947;-71
2022/12/06 04:51:11;;;;;;;75.50;31.98;;;;;;;5.26;100.00;98747.44;4265729;33;20432;-71
2022/12/06 04:53:38;;;;;;;69.95;30.12;;;;;;;4.83;100.00;98753.59;4296709;33;20516;-71
2022/12/06 04:56:04;;;;;;;76.32;30.70;;;;;;;4.53;100.00;98716.94;4295805;33;20033;-71
2022/12/06 04:58:31;;;;;;;66.97;29.48;;;;;;;4.84;100.00;98717.91;4273493;33;20037;-71
2022/12/06 05:00:57;;;;;;;77.95;31.75;;;;;;;5.15;100.00;98740.16;4276188;33;20127;-70
2022/12/06 05:03:24;;;;;;;74.32;31.55;;;;;;;5.04;100.00;98739.03;4266728;33;20042;-71
2022/12/06 05:05:50;;;;;;;71.75;32.40;;;;;;;4.73;100.00;98711.44;4279835;33;20030;-71
2022/12/06 05:08:17;;;;;;;82.93;34.92;;;;;;;5.17;100.00;98744.25;4281492;33;20072;-71
2022/12/06 05:10:48;;;;;;;76.85;33.60;;;;;;;5.00;100.00;98744.00;4263989;33;20075;-71
2022/12/06 05:13:16;;;;;;;82.50;31.98;;;;;;;4.91;100.00;98745.31;4250906;33;20494;-72
2022/12/06 05:15:51;;;;;;;74.25;32.38;;;;;;;5.02;100.00;98747.25;4236894;33;20038;-72
2022/12/06 05:18:18;;;;;;;81.63;32.35;;;;;;;4.91;100.00;98748.00;4249773;33;20102;-71
2022/12/06 05:20:45;;;;;;;80.72;30.58;;;;;;;4.80;100.00;98748.72;4266742;33;20034;-70
2022/12/06 05:23:12;;;;;;;77.53;32.42;;;;;;;4.77;100.00;98720.66;4263134;33;20163;-71
2022/12/06 05:25:38;;;;;;;69.12;29.65;;;;;;;4.73;100.00;98749.59;4266788;33;20093;-71
2022/12/06 05:28:05;;;;;;;79.37;32.22;;;;;;;4.88;100.00;98740.41;4254078;33;20065;-71
2022/12/06 05:30:32;;;;;;;89.68;33.63;;;;;;;5.01;100.00;98723.47;4252567;33;20186;-71
2022/12/06 05:32:58;;;;;;;79.32;31.48;;;;;;;4.99;100.00;98720.22;4252352;33;20211;-70
2022/12/06 05:35:24;;;;;;;84.53;34.47;;;;;;;5.30;100.00;98737.97;4250632;33;20033;-71
2022/12/06 05:37:51;;;;;;;79.93;33.45;;;;;;;5.30;100.00;98721.94;4252668;33;20046;-71
2022/12/06 05:40:17;;;;;;;92.50;32.60;;;;;;;5.69;100.00;98725.16;4252467;33;20496;-71
2022/12/06 05:42:44;;;;;;;77.07;33.20;;;;;;;5.71;100.00;98701.72;4264909;33;20375;-71
2022/12/06 05:45:10;;;;;;;74.18;31.77;;;;;;;5.57;100.00;98710.97;4264918;33;20038;-69
2022/12/06 05:47:38;;;;;;;76.20;29.98;;;;;;;5.48;100.00;98701.62;4291607;33;20053;-70
2022/12/06 05:50:05;;;;;;;77.82;31.48;;;;;;;5.34;100.00;98691.06;4251978;33;20067;-69
2022/12/06 05:52:32;;;;;;;70.22;30.55;;;;;;;5.23;100.00;98673.13;4265087;33;20319;-70
2022/12/06 05:54:58;;;;;;;76.55;30.83;;;;;;;5.44;100.00;98701.22;4266510;33;20065;-70
2022/12/06 05:57:32;;;;;;;79.62;31.08;;;;;;;5.54;100.00;98706.88;4264791;33;20071;-71
2022/12/06 05:59:58;;;;;;;82.37;33.20;;;;;;;5.40;100.00;98705.41;4266130;33;20057;-71
2022/12/06 06:02:24;;;;;;;80.05;34.28;;;;;;;5.54;100.00;98698.03;4264548;33;20089;-71
2022/12/06 06:04:51;;;;;;;77.47;32.38;;;;;;;5.62;100.00;98708.41;4266336;33;20394;-70
2022/12/06 06:07:18;;;;;;;67.97;30.42;;;;;;;5.55;100.00;98697.81;4263899;33;20081;-70
2022/12/06 06:09:51;;;;;;;76.37;32.78;;;;;;;5.24;100.00;98658.75;4266031;33;20050;-71
2022/12/06 06:12:17;;;;;;;68.32;31.27;;;;;;;5.57;100.00;98702.94;4262040;33;20096;-71
2022/12/06 06:14:43;;;;;;;75.72;34.10;;;;;;;5.69;100.00;98695.78;4252122;33;20035;-70
2022/12/06 06:17:10;;;;;;;76.28;34.72;;;;;;;5.60;100.00;98665.06;4250421;33;20041;-70
2022/12/06 06:19:36;;;;;;;81.12;34.08;;;;;;;5.27;100.00;98637.78;4250703;33;20058;-70
2022/12/06 06:22:03;;;;;;;81.85;32.80;;;;;;;5.41;100.00;98691.81;4274238;33;20042;-70
2022/12/06 06:24:37;;;;;;;82.15;32.28;;;;;;;5.50;100.00;98665.63;4279463;33;20026;-70
2022/12/06 06:27:04;;;;;;;78.07;33.40;;;;;;;5.49;100.00;98660.50;4269268;33;20038;-70
2022/12/06 06:29:31;;;;;;;76.90;31.48;;;;;;;5.31;100.00;98672.84;4263929;33;20030;-71
2022/12/06 06:31:57;;;;;;;79.50;31.85;;;;;;;5.20;100.00;98676.25;4249453;33;20051;-71
2022/12/06 06:34:25;;;;;;;77.60;33.15;;;;;;;5.30;100.00;98700.59;4241657;33;20034;-72
2022/12/06 06:36:51;;;;;;;84.65;32.50;;;;;;;5.50;100.00;98689.66;4238016;33;20060;-72
2022/12/06 06:39:18;;;;;;;79.50;33.30;;;;;;;5.49;100.00;98687.19;4245024;33;20118;-71
2022/12/06 06:41:45;;;;;;;80.47;31.20;;;;;;;5.45;100.00;98687.66;4248153;33;20071;-71
2022/12/06 06:44:11;;;;;;;106.87;44.05;;;;;;;5.08;100.00;98660.19;4251661;33;20463;-71
2022/12/06 06:46:38;;;;;;;103.40;41.03;;;;;;;5.14;100.00;98679.81;4251705;33;20097;-70
2022/12/06 06:49:04;;;;;;;95.43;39.20;;;;;;;5.04;100.00;98665.16;4259024;33;20060;-69
2022/12/06 06:51:32;;;;;;;94.57;40.42;;;;;;;5.40;100.00;98682.19;4265970;33;20037;-70
2022/12/06 06:54:00;;;;;;;94.50;38.17;;;;;;;5.50;100.00;98688.84;4265401;33;20076;-70
2022/12/06 06:56:27;;;;;;;86.97;33.08;;;;;;;5.46;100.00;98691.97;4265388;33;20271;-70
2022/12/06 06:58:54;;;;;;;94.53;34.22;;;;;;;5.37;100.00;98679.16;4236888;33;20064;-69
2022/12/06 07:01:23;;;;;;;83.40;33.33;;;;;;;5.40;100.00;98652.81;4233832;33;20067;-70
2022/12/06 07:03:52;;;;;;;89.90;35.38;;;;;;;5.69;100.00;98682.41;4232596;33;20210;-69
2022/12/06 07:06:19;;;;;;;91.05;32.60;;;;;;;5.52;100.00;98681.41;4253179;33;20063;-71
2022/12/06 07:08:45;;;;;;;98.95;36.25;;;;;;;5.37;100.00;98663.94;4263638;33;20049;-70
2022/12/06 07:11:14;;;;;;;89.87;34.95;;;;;;;5.51;100.00;98679.81;4263848;33;20238;-70
2022/12/06 07:13:42;;;;;;;94.60;35.78;;;;;;;5.59;100.00;98679.47;4263481;33;20052;-72
2022/12/06 07:16:14;;;;;;;86.57;35.53;;;;;;;5.59;100.00;98676.81;4260094;33;20049;-73
2022/12/06 07:18:42;;;;;;;95.07;35.70;;;;;;;5.50;100.00;98652.25;4263155;33;20049;-74
2022/12/06 07:21:12;;;;;;;94.93;38.17;;;;;;;5.41;100.00;98675.81;4251738;33;20089;-73
2022/12/06 07:23:38;;;;;;;90.93;39.25;;;;;;;5.33;100.00;98656.59;4265381;33;20059;-73
2022/12/06 07:26:11;;;;;;;90.47;37.50;;;;;;;5.30;100.00;98689.06;4234852;33;20064;-73
2022/12/06 07:28:40;;;;;;;97.62;38.03;;;;;;;5.48;100.00;98685.59;4238011;33;20042;-72
2022/12/06 07:31:29;;;;;;;86.75;33.95;;;;;;;5.56;100.00;98674.59;4261970;33;20086;-73
2022/12/06 07:33:58;;;;;;;91.75;36.53;;;;;;;5.72;100.00;98675.81;4252188;33;20060;-72
2022/12/06 07:36:28;;;;;;;101.70;37.20;;;;;;;5.55;100.00;98664.94;4239239;33;20076;-73
2022/12/06 07:38:57;;;;;;;96.05;37.88;;;;;;;5.46;100.00;98678.59;4254613;33;20067;-73
2022/12/06 07:47:01;;;;;;;103.43;38.40;;;;;;;5.26;100.00;98673.53;4260800;33;20397;-72
2022/12/06 07:49:29;;;;;;;95.97;36.58;;;;;;;5.29;100.00;98661.56;4267664;33;20041;-72
2022/12/06 07:51:56;;;;;;;99.95;40.20;;;;;;;5.26;100.00;98673.53;4267400;33;20038;-73
2022/12/06 07:54:24;;;;;;;92.35;37.92;;;;;;;5.22;100.00;98660.84;4267351;33;20081;-73
2022/12/06 07:56:51;;;;;;;105.47;40.38;;;;;;;5.02;100.00;98651.19;4245999;33;20050;-74
2022/12/06 07:59:18;;;;;;;95.43;38.80;;;;;;;4.78;100.00;98638.75;4225008;34;20092;-73
2022/12/06 08:01:44;;;;;;;90.87;34.22;;;;;;;5.05;100.00;98655.28;4223455;34;20107;-72
2022/12/06 08:04:11;;;;;;;86.40;34.08;;;;;;;4.98;100.00;98636.69;4224944;34;20035;-72
2022/12/06 08:06:44;;;;;;;83.55;35.85;;;;;;;5.08;100.00;98661.00;4225561;34;20046;-73
2022/12/06 08:09:11;;;;;;;88.25;35.22;;;;;;;5.21;100.00;98648.53;4225740;34;20035;-73
2022/12/06 08:11:38;;;;;;;90.65;36.78;;;;;;;5.19;100.00;98658.63;4210871;34;20074;-72
2022/12/06 08:14:04;;;;;;;79.57;35.30;;;;;;;5.02;100.00;98632.53;4210725;34;20057;-72
2022/12/06 08:16:31;;;;;;;86.45;34.33;;;;;;;5.25;100.00;98671.09;4214165;34;20114;-73
2022/12/06 08:18:58;;;;;;;87.15;37.00;;;;;;;5.35;100.00;98666.03;4223737;34;20169;-76
2022/12/06 08:21:25;;;;;;;94.05;37.72;;;;;;;5.48;100.00;98667.72;4225929;34;20047;-73
2022/12/06 08:23:53;;;;;;;93.20;38.95;;;;;;;5.26;100.00;98678.03;4210237;34;20061;-72
2022/12/06 08:26:21;;;;;;;88.00;36.65;;;;;;;5.29;100.00;98677.59;4209638;34;20055;-72
2022/12/06 08:28:48;;;;;;;89.93;37.97;;;;;;;5.36;100.00;98673.00;4211587;34;20396;-73
2022/12/06 08:31:18;;;;;;;87.93;38.28;;;;;;;5.28;100.00;98670.59;4207095;34;20061;-72
2022/12/06 08:33:44;;;;;;;104.00;44.90;;;;;;;5.23;100.00;98673.13;4210500;34;20038;-72
2022/12/06 08:36:14;;;;;;;92.25;35.33;;;;;;;4.97;100.00;98648.38;4210034;34;20039;-72
2022/12/06 08:38:41;;;;;;;86.25;36.17;;;;;;;5.18;100.00;98648.97;4213945;34;20042;-73
2022/12/06 08:41:54;;;;;;;82.80;35.17;;;;;;;5.60;100.00;98663.22;4224484;33;20078;-72
2022/12/06 08:43:57;;;;;;;84.18;35.13;;;;;;;5.26;100.00;98656.69;4237015;33;20084;-72
2022/12/06 08:46:26;;;;;;;90.18;37.42;;;;;;;5.31;100.00;98678.16;4237937;33;20433;-73
2022/12/06 08:48:53;;;;;;;90.53;37.22;;;;;;;5.38;100.00;98660.22;4238817;33;20026;-72
2022/12/06 08:51:20;;;;;;;85.68;37.47;;;;;;;5.63;100.00;98672.63;4237313;33;20038;-72
2022/12/06 08:53:47;;;;;;;86.30;32.78;;;;;;;5.53;100.00;98661.69;4238473;33;20058;-72
2022/12/06 08:56:14;;;;;;;88.93;37.28;;;;;;;5.50;100.00;98668.28;4253724;33;20042;-72
2022/12/06 08:58:41;;;;;;;84.10;34.63;;;;;;;5.73;100.00;98662.25;4254589;33;20046;-72
2022/12/06 09:01:13;;;;;;;78.37;33.72;;;;;;;5.96;100.00;98655.31;4237722;33;20083;-71
2022/12/06 09:03:39;;;;;;;71.90;31.35;;;;;;;6.12;100.00;98649.34;4195196;34;20043;-72
2022/12/06 09:06:07;;;;;;;67.47;28.42;;;;;;;5.77;100.00;98615.31;4198032;34;20055;-72
2022/12/06 09:08:34;;;;;;;63.22;30.98;;;;;;;6.03;100.00;98650.75;4207430;34;20056;-72
2022/12/06 09:11:01;;;;;;;72.78;30.62;;;;;;;6.16;100.00;98650.53;4231521;33;20085;-72
2022/12/06 09:13:28;;;;;;;69.25;31.33;;;;;;;6.20;100.00;98642.84;4251926;33;20081;-72
2022/12/06 09:15:55;;;;;;;68.85;30.50;;;;;;;6.36;100.00;98650.19;4249227;33;20038;-72
2022/12/06 09:18:21;;;;;;;72.60;30.90;;;;;;;6.21;100.00;98619.59;4251583;33;20080;-72
2022/12/06 09:20:48;;;;;;;74.47;33.05;;;;;;;6.21;100.00;98614.25;4253775;33;20099;-71
2022/12/06 09:23:14;;;;;;;76.85;35.58;;;;;;;6.60;100.00;98641.38;4252595;33;20475;-72
2022/12/06 09:25:41;;;;;;;102.60;39.30;;;;;;;6.51;100.00;98625.66;4224171;34;20043;-72
2022/12/06 09:28:09;;;;;;;100.68;39.40;;;;;;;6.47;100.00;98637.88;4222995;34;20070;-71
2022/12/06 09:30:36;;;;;;;94.60;37.17;;;;;;;6.18;100.00;98599.50;4223768;34;20039;-71
2022/12/06 09:33:02;;;;;;;63.15;33.33;;;;;;;6.24;100.00;98637.84;4224694;34;20445;-71
2022/12/06 09:35:29;;;;;;;84.00;37.78;;;;;;;6.32;100.00;98602.78;4245982;33;20054;-72
2022/12/06 09:37:58;;;;;;;95.65;42.00;;;;;;;6.32;100.00;98616.94;4239319;33;20377;-71
2022/12/06 09:41:00;;;;;;;89.28;36.70;;;;;;;6.24;100.00;98581.69;4252403;33;20046;-72
2022/12/06 09:43:42;;;;;;;117.00;46.17;;;;;;;6.51;100.00;98614.13;4232775;33;20030;-71
2022/12/06 09:46:09;;;;;;;121.72;43.33;;;;;;;6.52;100.00;98616.59;4252115;33;20063;-72
2022/12/06 09:48:48;;;;;;;102.03;40.97;;;;;;;6.32;100.00;98611.59;4251670;33;20030;-72
2022/12/06 09:51:20;;;;;;;98.85;43.78;;;;;;;6.43;100.00;98603.78;4249797;33;20072;-71
2022/12/06 09:53:55;;;;;;;111.78;45.47;;;;;;;6.46;100.00;98585.44;4253266;33;20042;-73
2022/12/06 09:56:31;;;;;;;118.47;48.17;;;;;;;6.18;100.00;98581.59;4252307;33;20096;-72
2022/12/06 09:59:58;;;;;;;103.35;44.22;;;;;;;6.45;100.00;98588.34;4244001;33;20103;-72
2022/12/06 10:02:27;;;;;;;104.25;43.90;;;;;;;6.57;100.00;98583.78;4182779;34;20123;-72
2022/12/06 10:05:16;;;;;;;114.10;47.97;;;;;;;6.35;100.00;98578.22;4207604;34;20065;-73
2022/12/06 10:08:10;;;;;;;92.97;38.45;;;;;;;6.59;100.00;98572.84;4209128;34;20346;-70
2022/12/06 10:10:57;;;;;;;94.45;40.03;;;;;;;6.38;100.00;98572.41;4209015;34;20055;-70
2022/12/06 10:13:49;;;;;;;96.85;39.63;;;;;;;6.29;100.00;98557.78;4210451;34;20058;-70
2022/12/06 10:16:38;;;;;;;97.28;40.15;;;;;;;6.34;100.00;98555.22;4210629;34;20035;-69
2022/12/06 10:19:04;;;;;;;102.70;39.25;;;;;;;6.32;100.00;98563.47;4211563;34;20031;-69
2022/12/06 10:21:48;;;;;;;92.55;39.20;;;;;;;6.23;100.00;98564.06;4211470;34;20040;-70
2022/12/06 10:24:25;;;;;;;91.95;36.88;;;;;;;6.44;100.00;98552.75;4208477;34;20079;-69
2022/12/06 10:26:54;;;;;;;103.40;38.63;;;;;;;6.12;100.00;98521.03;4211490;34;20057;-70
2022/12/06 10:29:24;;;;;;;92.47;37.90;;;;;;;6.35;100.00;98540.78;4212272;34;20042;-70
2022/12/06 10:32:25;;;;;;;103.55;41.17;;;;;;;6.05;100.00;98515.00;4222938;34;20073;-69
2022/12/06 10:34:58;;;;;;;102.85;39.92;;;;;;;6.30;100.00;98538.00;4224003;33;20051;-70
2022/12/06 10:37:45;;;;;;;108.82;41.37;;;;;;;6.27;100.00;98525.09;4223221;33;20030;-69
2022/12/06 10:40:25;;;;;;;100.03;36.92;;;;;;;6.32;100.00;98530.56;4251854;33;20038;-70
2022/12/06 10:43:14;;;;;;;111.90;44.00;;;;;;;6.11;100.00;98524.78;4254639;33;20042;-70
2022/12/06 10:48:40;;;;;;;94.57;37.53;;;;;;;6.31;100.00;98513.69;4237223;33;20034;-68
2022/12/06 10:51:22;;;;;;;90.97;34.40;;;;;;;6.06;100.00;98489.88;4237695;33;20111;-70
2022/12/06 10:56:40;;;;;;;90.47;33.85;;;;;;;6.30;100.00;98513.94;4237970;33;20117;-69
2022/12/06 10:59:25;;;;;;;88.15;34.22;;;;;;;6.18;100.00;98514.75;4238226;33;20095;-70
2022/12/06 11:02:00;;;;;;;71.43;31.00;;;;;;;6.29;100.00;98515.00;4235310;33;20365;-69
2022/12/06 11:04:35;;;;;;;78.65;30.30;;;;;;;6.25;100.00;98503.94;4240113;33;20047;-70
2022/12/06 11:07:14;;;;;;;60.67;26.12;;;;;;;6.15;100.00;98482.34;4240996;33;20060;-70
2022/12/06 11:09:43;;;;;;;82.28;29.75;;;;;;;6.16;100.00;98506.16;4239518;33;20056;-69
2022/12/06 11:12:33;;;;;;;67.43;28.92;;;;;;;5.99;100.00;98505.25;4232960;33;20184;-70
2022/12/06 11:15:16;;;;;;;83.82;30.58;;;;;;;6.14;100.00;98510.09;4239291;33;20057;-70
2022/12/06 11:17:51;;;;;;;78.43;31.42;;;;;;;6.17;100.00;98489.09;4243229;33;20071;-70
2022/12/06 11:20:57;;;;;;;83.53;36.05;;;;;;;6.23;100.00;98494.53;4253903;33;20069;-70
2022/12/06 11:23:38;;;;;;;60.95;28.02;;;;;;;6.40;100.00;98495.44;4251006;33;20076;-70
2022/12/06 11:26:21;;;;;;;58.63;23.92;;;;;;;6.28;100.00;98459.88;4253976;33;20049;-70
2022/12/06 11:29:09;;;;;;;51.17;19.40;;;;;;;6.26;100.00;98483.38;4255241;33;20076;-69
2022/12/06 11:31:46;;;;;;;44.78;18.42;;;;;;;6.34;100.00;98475.00;4254937;33;20198;-70
2022/12/06 11:34:34;;;;;;;36.58;17.67;;;;;;;6.31;100.00;98475.47;4269195;33;20498;-70
2022/12/06 11:37:05;;;;;;;44.78;19.25;;;;;;;6.10;100.00;98480.38;4263652;33;20034;-70
2022/12/06 11:39:33;;;;;;;47.28;20.05;;;;;;;6.16;100.00;98476.75;4261121;33;20115;-70
2022/12/06 11:42:03;;;;;;;50.22;21.37;;;;;;;6.03;100.00;98462.81;4267184;33;20067;-70
2022/12/06 11:44:53;;;;;;;45.42;19.92;;;;;;;6.18;100.00;98471.19;4261933;33;20060;-70
2022/12/06 11:47:22;;;;;;;55.22;20.20;;;;;;;6.29;100.00;98470.34;4261770;33;20059;-70
2022/12/06 11:49:54;;;;;;;55.20;21.58;;;;;;;5.86;100.00;98442.12;4262581;33;20129;-71
2022/12/06 11:52:36;;;;;;;63.40;23.52;;;;;;;6.05;100.00;98448.19;4261536;33;20056;-71
2022/12/06 11:55:15;;;;;;;55.22;21.42;;;;;;;6.24;100.00;98466.75;4248550;33;20064;-71
2022/12/06 11:58:08;;;;;;;61.42;23.17;;;;;;;6.27;100.00;98476.97;4263520;33;20101;-70
2022/12/06 12:00:52;;;;;;;57.80;23.98;;;;;;;6.34;100.00;98469.66;4385506;28;20080;31
2022/12/06 12:03:27;;;;;;;57.13;22.25;;;;;;;6.41;100.00;98466.84;4222801;33;20503;-69
2022/12/06 12:06:17;;;;;;;60.78;25.00;;;;;;;6.30;100.00;98442.56;4239234;33;20121;-68
2022/12/06 12:08:55;;;;;;;69.53;25.80;;;;;;;6.47;100.00;98447.97;4238222;33;20052;-69
2022/12/06 12:11:25;;;;;;;67.70;24.15;;;;;;;6.46;100.00;98456.22;4236232;33;20055;-73
2022/12/06 12:13:58;;;;;;;55.95;24.40;;;;;;;6.38;100.00;98454.75;4237266;33;20091;-73
2022/12/06 12:16:55;;;;;;;58.10;22.83;;;;;;;6.32;100.00;98450.38;4236418;33;20042;-70
2022/12/06 12:19:29;;;;;;;64.45;27.02;;;;;;;6.37;100.00;98442.44;4194140;34;20044;-72
2022/12/06 12:21:58;;;;;;;53.60;22.85;;;;;;;6.09;100.00;98452.00;4195410;34;20186;-72
2022/12/06 12:24:48;;;;;;;62.92;22.95;;;;;;;6.16;100.00;98450.03;4190093;34;20065;-72
2022/12/06 12:27:39;;;;;;;61.15;23.92;;;;;;;6.25;100.00;98444.31;4194681;34;20047;-74
2022/12/06 12:30:17;;;;;;;58.20;22.58;;;;;;;6.22;100.00;98444.78;4194683;34;20082;-75
2022/12/06 12:32:46;;;;;;;49.40;22.35;;;;;;;5.92;100.00;98413.66;4195800;34;20132;-74
2022/12/06 12:35:21;;;;;;;71.05;25.10;;;;;;;6.00;100.00;98432.06;4175996;34;20056;-73
2022/12/06 12:37:51;;;;;;;62.40;23.35;;;;;;;5.99;100.00;98425.06;4174034;34;20075;-72
2022/12/06 12:40:30;;;;;;;65.80;24.73;;;;;;;5.99;100.00;98435.75;4175589;34;20436;-73
2022/12/06 12:43:05;;;;;;;83.62;27.13;;;;;;;6.03;100.00;98436.94;4165874;34;20240;-73
2022/12/06 12:45:32;;;;;;;65.75;26.20;;;;;;;6.12;100.00;98430.16;4165840;34;20099;-72
2022/12/06 12:48:01;;;;;;;60.60;24.77;;;;;;;5.80;100.00;98401.13;4144149;34;20088;-72
2022/12/06 12:50:30;;;;;;;84.82;31.27;;;;;;;6.14;100.00;98419.22;4155199;34;20143;-73
2022/12/06 12:52:57;;;;;;;69.72;28.17;;;;;;;6.07;100.00;98419.38;4167344;34;20052;-72
2022/12/06 12:55:32;;;;;;;87.22;32.63;;;;;;;5.78;100.00;98387.19;4172757;34;20032;-71
2022/12/06 12:58:10;;;;;;;83.57;31.27;;;;;;;6.26;100.00;98408.53;4184188;34;20067;-74
2022/12/06 13:00:41;;;;;;;71.53;26.87;;;;;;;6.14;100.00;98387.97;4208841;34;20057;-71
2022/12/06 13:03:16;;;;;;;67.05;25.23;;;;;;;6.25;100.00;98406.88;4220518;34;20486;-73
2022/12/06 13:05:47;;;;;;;72.47;25.10;;;;;;;6.25;100.00;98406.88;4198392;34;20065;-74
2022/12/06 13:08:17;;;;;;;78.80;27.77;;;;;;;6.22;100.00;98407.34;4209893;34;20039;-74
2022/12/06 13:10:47;;;;;;;63.05;23.42;;;;;;;6.02;100.00;98399.75;4210930;34;20122;-74
2022/12/06 13:13:38;;;;;;;73.30;26.02;;;;;;;6.18;100.00;98401.69;4195116;34;20036;-74
2022/12/06 13:16:11;;;;;;;54.58;24.60;;;;;;;6.31;100.00;98389.91;4196437;34;20068;-74
2022/12/06 13:18:43;;;;;;;66.60;25.02;;;;;;;6.03;100.00;98363.94;4206612;33;20086;-74
2022/12/06 13:21:19;;;;;;;51.22;22.77;;;;;;;6.18;100.00;98391.78;4238463;33;20076;-74
2022/12/06 13:23:51;;;;;;;53.67;22.85;;;;;;;6.25;100.00;98391.66;4238237;33;20047;-74
2022/12/06 13:26:28;;;;;;;49.00;20.40;;;;;;;6.10;100.00;98389.50;4234692;33;20632;-73
2022/12/06 13:29:05;;;;;;;47.28;17.85;;;;;;;6.20;100.00;98393.44;4237051;33;20102;-74
2022/12/06 13:31:35;;;;;;;49.80;19.58;;;;;;;5.98;100.00;98388.69;4237853;33;20026;-74
2022/12/06 13:34:20;;;;;;;46.58;20.52;;;;;;;5.99;100.00;98393.00;4235935;33;20428;-73
2022/12/06 13:36:52;;;;;;;47.22;19.65;;;;;;;5.89;100.00;98361.50;4244796;33;20076;-73
2022/12/06 13:39:37;;;;;;;59.38;24.98;;;;;;;5.91;100.00;98391.47;4252912;33;20072;-74
2022/12/06 13:42:40;;;;;;;59.13;24.15;;;;;;;6.14;100.00;98382.63;4254377;33;20078;-74
2022/12/06 13:45:37;;;;;;;44.50;18.37;;;;;;;6.20;100.00;98388.09;4266776;33;20026;-71
2022/12/06 13:48:24;;;;;;;44.55;17.95;;;;;;;6.05;100.00;98389.41;4271457;33;20364;-73
2022/12/06 13:50:58;;;;;;;50.92;21.00;;;;;;;5.94;100.00;98379.50;4266813;33;20079;-73
2022/12/06 13:53:32;;;;;;;49.50;21.20;;;;;;;5.83;100.00;98389.16;4266183;33;20091;-73
2022/12/06 13:56:18;;;;;;;46.55;22.40;;;;;;;5.80;100.00;98379.75;4265116;33;20422;-73
2022/12/06 13:58:52;;;;;;;58.85;23.85;;;;;;;5.87;100.00;98384.16;4266919;33;20078;-73
2022/12/06 14:01:50;;;;;;;57.80;20.77;;;;;;;6.09;100.00;98387.84;4269002;33;20065;-74
2022/12/06 14:04:26;;;;;;;59.33;22.67;;;;;;;6.14;100.00;98385.31;4280422;33;20082;-73
2022/12/06 14:06:56;;;;;;;48.75;21.65;;;;;;;6.06;100.00;98377.63;4282774;33;20037;-73
2022/12/06 14:09:27;;;;;;;54.03;22.73;;;;;;;5.93;100.00;98383.22;4283555;33;20079;-71
2022/12/06 14:11:59;;;;;;;56.28;22.60;;;;;;;6.11;100.00;98385.78;4280028;33;20464;-74